Time,TemperatureF,DewpointF,PressureIn,WindDirection,WindDirectionDegrees,WindSpeedMPH,WindSpeedGustMPH,Humidity,HourlyPrecipIn,Conditions,Clouds,dailyrainin,SolarRadiationWatts/m^2,SoftwareType,DateUTC
2013-03-23 00:01:00,55.4,50.3,29.92,ESE,107,0.0,0.0,83,0.00,CLR,,0.00,0.0,WeatherDisplay:10.37,2013-03-23 07:01:00,
2013-03-23 00:06:00,55.4,50.0,29.92,ESE,107,0.0,0.0,82,0.00,CLR,,0.00,0.0,WeatherDisplay:10.37,2013-03-23 07:06:00,
2013-03-23 00:11:00,55.3,50.2,29.91,ESE,107,0.0,0.0,83,0.00,CLR,,0.00,0.0,WeatherDisplay:10.37,2013-03-23 07:11:00,
2013-03-23 00:16:00,55.2,50.1,29.91,ESE,107,1.1,0.0,83,0.00,CLR,,0.00,0.0,WeatherDisplay:10.37,2013-03-23 07:16:00,
2013-03-23 00:21:00,55.1,50.0,29.91,ESE,107,0.0,0.0,83,0.00,CLR,,0.00,0.0,WeatherDisplay:10.37,2013-03-23 07:21:00,
2013-03-23 00:26:00,54.9,49.8,29.92,ESE,107,0.0,0.0,83,0.00,CLR,,0.00,0.0,WeatherDisplay:10.37,2013-03-23 07:26:00,
2013-03-23 00:31:00,54.7,49.6,29.92,ESE,107,0.0,0.0,83,0.00,CLR,,0.00,0.0,WeatherDisplay:10.37,2013-03-23 07:31:00,
2013-03-23 00:36:00,54.5,49.4,29.92,ESE,107,0.0,0.0,83,0.00,CLR,,0.00,0.0,WeatherDisplay:10.37,2013-03-23 07:36:00,
2013-03-23 00:41:00,54.4,49.7,29.92,ESE,107,1.1,0.0,84,0.00,CLR,,0.00,0.0,WeatherDisplay:10.37,2013-03-23 07:41:00,
2013-03-23 00:46:00,54.4,49.7,29.91,SE,134,4.0,4.0,84,0.00,CLR,,0.00,0.0,WeatherDisplay:10.37,2013-03-23 07:46:00,
2013-03-23 00:51:00,54.6,50.2,29.91,SE,135,1.1,0.0,85,0.00,CLR,,0.00,0.0,WeatherDisplay:10.37,2013-03-23 07:51:00,
2013-03-23 00:56:00,54.7,50.6,29.92,SE,135,1.1,0.0,86,0.00,CLR,,0.00,0.0,WeatherDisplay:10.37,2013-03-23 07:56:00,
2013-03-23 01:01:00,54.6,50.2,29.92,SE,135,0.0,0.0,85,0.00,CLR,,0.00,0.0,WeatherDisplay:10.37,2013-03-23 08:01:00,
2013-03-23 01:06:00,54.4,50.0,29.92,SE,135,2.3,2.3,85,0.00,CLR,,0.00,0.0,WeatherDisplay:10.37,2013-03-23 08:06:00,
2013-03-23 01:11:00,54.2,49.8,29.92,SE,135,1.1,1.1,85,0.00,CLR,,0.00,0.0,WeatherDisplay:10.37,2013-03-23 08:11:00,
2013-03-23 01:16:00,54.2,49.8,29.92,SE,135,0.0,0.0,85,0.00,CLR,,0.00,0.0,WeatherDisplay:10.37,2013-03-23 08:16:00,
2013-03-23 01:21:00,54.1,49.7,29.92,SE,135,0.0,0.0,85,0.00,CLR,,0.00,0.0,WeatherDisplay:10.37,2013-03-23 08:21:00,
2013-03-23 01:26:00,54.1,50.3,29.91,SE,134,2.3,0.0,87,0.00,CLR,,0.00,0.0,WeatherDisplay:10.37,2013-03-23 08:26:00,
2013-03-23 01:32:00,54.1,50.0,29.92,SE,134,0.0,0.0,86,0.00,CLR,,0.00,0.0,WeatherDisplay:10.37,2013-03-23 08:32:00,
2013-03-23 01:37:00,54.0,49.9,29.92,SE,134,1.1,1.1,86,0.00,CLR,,0.00,0.0,WeatherDisplay:10.37,2013-03-23 08:37:00,
2013-03-23 01:42:00,53.7,49.6,29.92,SE,134,1.1,1.1,86,0.00,CLR,,0.00,0.0,WeatherDisplay:10.37,2013-03-23 08:42:00,
2013-03-23 01:47:00,53.6,49.8,29.92,SE,134,0.0,0.0,87,0.00,CLR,,0.00,0.0,WeatherDisplay:10.37,2013-03-23 08:47:00,
2013-03-23 01:52:00,53.4,49.6,29.92,SE,134,0.0,0.0,87,0.00,CLR,,0.00,0.0,WeatherDisplay:10.37,2013-03-23 08:52:00,
2013-03-23 01:57:00,53.4,49.6,29.92,SE,134,0.0,0.0,87,0.00,CLR,,0.00,0.0,WeatherDisplay:10.37,2013-03-23 08:57:00,
2013-03-23 02:02:00,53.3,49.8,29.92,SE,134,1.1,1.1,88,0.00,CLR,,0.00,0.0,WeatherDisplay:10.37,2013-03-23 09:02:00,
2013-03-23 02:07:00,53.4,49.9,29.92,SE,134,0.0,0.0,88,0.00,CLR,,0.00,0.0,WeatherDisplay:10.37,2013-03-23 09:07:00,
2013-03-23 02:12:00,53.5,50.0,29.91,SE,134,0.0,0.0,88,0.00,CLR,,0.00,0.0,WeatherDisplay:10.37,2013-03-23 09:12:00,
2013-03-23 02:17:00,53.4,49.9,29.91,SE,134,1.1,0.0,88,0.00,CLR,,0.00,0.0,WeatherDisplay:10.37,2013-03-23 09:17:00,
2013-03-23 02:22:00,53.3,49.8,29.92,SE,134,2.0,2.0,88,0.00,CLR,,0.00,0.0,WeatherDisplay:10.37,2013-03-23 09:22:00,
2013-03-23 02:27:00,53.1,49.3,29.92,SE,134,2.0,2.0,87,0.00,CLR,,0.00,0.0,WeatherDisplay:10.37,2013-03-23 09:27:00,
2013-03-23 02:32:00,53.1,49.6,29.92,SE,134,2.3,2.3,88,0.00,CLR,,0.00,0.0,WeatherDisplay:10.37,2013-03-23 09:32:00,
2013-03-23 02:37:00,53.2,49.7,29.92,SE,134,2.3,2.3,88,0.00,CLR,,0.00,0.0,WeatherDisplay:10.37,2013-03-23 09:37:00,
2013-03-23 02:42:00,53.5,50.0,29.92,SE,134,1.1,1.1,88,0.00,CLR,,0.00,0.0,WeatherDisplay:10.37,2013-03-23 09:42:00,
2013-03-23 02:47:00,53.6,50.1,29.91,SE,134,0.0,0.0,88,0.00,CLR,,0.00,0.0,WeatherDisplay:10.37,2013-03-23 09:47:00,
2013-03-23 02:52:00,53.6,50.1,29.91,SE,133,0.0,0.0,88,0.00,CLR,,0.00,0.0,WeatherDisplay:10.37,2013-03-23 09:52:00,
2013-03-23 02:57:00,53.6,49.8,29.92,SE,134,1.1,0.0,87,0.00,CLR,,0.00,0.0,WeatherDisplay:10.37,2013-03-23 09:57:00,
2013-03-23 03:02:00,53.5,49.7,29.91,SE,134,0.0,0.0,87,0.00,CLR,,0.00,0.0,WeatherDisplay:10.37,2013-03-23 10:02:00,
2013-03-23 03:07:00,53.6,50.1,29.91,SE,133,1.1,1.1,88,0.00,CLR,,0.00,0.0,WeatherDisplay:10.37,2013-03-23 10:07:00,
2013-03-23 03:12:00,53.6,50.1,29.92,SE,134,2.3,2.3,88,0.00,CLR,,0.00,0.0,WeatherDisplay:10.37,2013-03-23 10:12:00,
2013-03-23 03:17:00,53.6,50.1,29.92,SE,133,0.0,0.0,88,0.00,CLR,,0.00,0.0,WeatherDisplay:10.37,2013-03-23 10:17:00,
2013-03-23 03:23:00,53.5,50.0,29.92,SE,133,0.0,0.0,88,0.00,CLR,,0.00,0.0,WeatherDisplay:10.37,2013-03-23 10:23:00,
2013-03-23 03:28:00,53.4,49.9,29.92,SE,133,0.0,0.0,88,0.00,CLR,,0.00,0.0,WeatherDisplay:10.37,2013-03-23 10:28:00,
2013-03-23 03:33:00,53.3,49.8,29.92,SE,133,0.0,0.0,88,0.00,CLR,,0.00,0.0,WeatherDisplay:10.37,2013-03-23 10:33:00,
2013-03-23 03:38:00,53.1,49.6,29.92,SE,133,0.0,0.0,88,0.00,CLR,,0.00,0.0,WeatherDisplay:10.37,2013-03-23 10:38:00,
2013-03-23 03:43:00,52.8,49.3,29.92,SE,134,0.0,0.0,88,0.00,CLR,,0.00,0.0,WeatherDisplay:10.37,2013-03-23 10:43:00,
2013-03-23 03:48:00,52.6,49.1,29.92,SE,133,0.0,0.0,88,0.00,CLR,,0.00,0.0,WeatherDisplay:10.37,2013-03-23 10:48:00,
2013-03-23 03:53:00,52.4,48.9,29.92,SE,133,1.1,1.1,88,0.00,CLR,,0.00,0.0,WeatherDisplay:10.37,2013-03-23 10:53:00,
2013-03-23 03:58:00,52.3,48.9,29.92,SE,133,0.0,0.0,88,0.00,CLR,,0.00,0.0,WeatherDisplay:10.37,2013-03-23 10:58:00,
2013-03-23 04:03:00,52.3,49.2,29.92,SE,133,0.0,0.0,89,0.00,CLR,,0.00,0.0,WeatherDisplay:10.37,2013-03-23 11:03:00,
2013-03-23 04:08:00,52.3,49.2,29.92,SE,133,1.1,1.1,89,0.00,CLR,,0.00,0.0,WeatherDisplay:10.37,2013-03-23 11:08:00,
2013-03-23 04:13:00,52.3,49.2,29.92,SE,133,0.0,0.0,89,0.00,CLR,,0.00,0.0,WeatherDisplay:10.37,2013-03-23 11:13:00,
2013-03-23 04:18:00,52.6,49.8,29.92,SE,133,0.0,0.0,90,0.00,CLR,,0.00,0.0,WeatherDisplay:10.37,2013-03-23 11:18:00,
2013-03-23 04:23:00,52.7,49.5,29.92,SE,133,2.3,2.3,89,0.00,CLR,,0.00,0.0,WeatherDisplay:10.37,2013-03-23 11:23:00,
2013-03-23 04:28:00,52.9,49.7,29.92,SE,133,1.1,0.0,89,0.00,CLR,,0.00,0.0,WeatherDisplay:10.37,2013-03-23 11:28:00,
2013-03-23 04:33:00,53.0,49.8,29.92,SE,133,0.0,0.0,89,0.00,CLR,,0.00,0.0,WeatherDisplay:10.37,2013-03-23 11:33:00,
2013-03-23 04:38:00,53.1,49.9,29.92,SE,133,1.1,1.1,89,0.00,CLR,,0.00,0.0,WeatherDisplay:10.37,2013-03-23 11:38:00,
2013-03-23 04:43:00,53.2,50.0,29.92,SE,133,2.3,2.3,89,0.00,CLR,,0.00,0.0,WeatherDisplay:10.37,2013-03-23 11:43:00,
2013-03-23 04:48:00,53.3,50.1,29.92,SE,133,1.1,1.1,89,0.00,CLR,,0.00,0.0,WeatherDisplay:10.37,2013-03-23 11:48:00,
2013-03-23 04:53:00,53.3,50.1,29.93,SE,133,2.3,2.3,89,0.00,CLR,,0.00,0.0,WeatherDisplay:10.37,2013-03-23 11:53:00,
2013-03-23 04:58:00,53.4,50.2,29.93,SE,133,2.3,2.3,89,0.00,CLR,,0.00,0.0,WeatherDisplay:10.37,2013-03-23 11:58:00,
2013-03-23 05:03:00,53.5,50.3,29.93,SE,132,3.5,3.5,89,0.00,CLR,,0.00,0.0,WeatherDisplay:10.37,2013-03-23 12:03:00,
2013-03-23 05:08:00,53.5,50.0,29.93,SE,132,3.5,3.5,88,0.00,CLR,,0.00,0.0,WeatherDisplay:10.37,2013-03-23 12:08:00,
2013-03-23 05:14:00,53.5,50.0,29.93,SE,131,2.3,2.3,88,0.00,CLR,,0.00,0.0,WeatherDisplay:10.37,2013-03-23 12:14:00,
2013-03-23 05:19:00,53.5,50.0,29.93,SE,130,3.5,3.5,88,0.00,CLR,,0.00,0.0,WeatherDisplay:10.37,2013-03-23 12:19:00,
2013-03-23 05:24:00,53.4,49.9,29.93,SE,130,0.0,0.0,88,0.00,CLR,,0.00,0.0,WeatherDisplay:10.37,2013-03-23 12:24:00,
2013-03-23 05:29:00,53.3,49.8,29.93,SE,130,1.0,1.0,88,0.00,CLR,,0.00,0.0,WeatherDisplay:10.37,2013-03-23 12:29:00,
2013-03-23 05:34:00,53.3,49.8,29.93,SE,130,2.3,2.3,88,0.00,CLR,,0.00,0.0,WeatherDisplay:10.37,2013-03-23 12:34:00,
2013-03-23 05:39:00,53.1,49.6,29.93,SE,130,2.3,0.0,88,0.00,CLR,,0.00,0.0,WeatherDisplay:10.37,2013-03-23 12:39:00,
2013-03-23 05:44:00,52.9,49.4,29.93,SE,130,0.0,0.0,88,0.00,CLR,,0.00,0.0,WeatherDisplay:10.37,2013-03-23 12:44:00,
2013-03-23 05:49:00,52.7,49.2,29.94,SE,130,0.0,0.0,88,0.00,CLR,,0.00,0.0,WeatherDisplay:10.37,2013-03-23 12:49:00,
2013-03-23 05:54:00,52.6,49.4,29.94,SE,130,1.1,1.1,89,0.00,CLR,,0.00,0.0,WeatherDisplay:10.37,2013-03-23 12:54:00,
2013-03-23 05:59:00,52.4,49.3,29.94,SE,130,2.3,2.3,89,0.00,CLR,,0.00,0.0,WeatherDisplay:10.37,2013-03-23 12:59:00,
2013-03-23 06:04:00,52.3,49.2,29.94,SE,130,2.3,2.3,89,0.00,CLR,,0.00,0.0,WeatherDisplay:10.37,2013-03-23 13:04:00,
2013-03-23 06:09:00,52.2,49.1,29.94,SE,129,3.5,3.5,89,0.00,CLR,,0.00,0.0,WeatherDisplay:10.37,2013-03-23 13:09:00,
2013-03-23 06:14:00,52.2,49.4,29.94,SE,129,2.3,2.3,90,0.00,CLR,,0.00,0.0,WeatherDisplay:10.37,2013-03-23 13:14:00,
2013-03-23 06:19:00,52.3,49.5,29.95,SE,129,1.1,1.1,90,0.00,CLR,,0.00,0.0,WeatherDisplay:10.37,2013-03-23 13:19:00,
2013-03-23 06:24:00,52.3,49.5,29.95,SE,129,2.3,2.3,90,0.00,CLR,,0.00,0.0,WeatherDisplay:10.37,2013-03-23 13:24:00,
2013-03-23 06:29:00,52.3,49.5,29.95,SE,129,1.1,0.0,90,0.00,CLR,,0.00,0.0,WeatherDisplay:10.37,2013-03-23 13:29:00,
2013-03-23 06:34:00,52.2,49.4,29.95,SE,129,1.1,1.1,90,0.00,CLR,,0.00,0.0,WeatherDisplay:10.37,2013-03-23 13:34:00,
2013-03-23 06:39:00,52.3,49.5,29.95,SE,129,2.3,2.3,90,0.00,CLR,,0.00,0.0,WeatherDisplay:10.37,2013-03-23 13:39:00,
2013-03-23 06:44:00,52.3,49.5,29.96,SE,129,1.1,1.1,90,0.00,CLR,,0.00,0.0,WeatherDisplay:10.37,2013-03-23 13:44:00,
2013-03-23 06:49:00,52.4,49.6,29.96,SE,129,1.1,1.1,90,0.00,CLR,,0.00,0.0,WeatherDisplay:10.37,2013-03-23 13:49:00,
2013-03-23 06:54:00,52.4,49.6,29.96,SE,129,1.1,1.1,90,0.00,CLR,,0.00,0.0,WeatherDisplay:10.37,2013-03-23 13:54:00,
2013-03-23 06:59:00,52.4,49.6,29.96,SE,129,2.3,2.3,90,0.00,SCT,,0.00,7.0,WeatherDisplay:10.37,2013-03-23 13:59:00,
2013-03-23 07:04:00,52.4,49.3,29.96,SE,129,1.1,0.0,89,0.00,SCT,,0.00,12.0,WeatherDisplay:10.37,2013-03-23 14:04:00,
2013-03-23 07:09:00,52.5,49.7,29.96,SE,129,1.1,0.0,90,0.00,BKN,,0.00,18.0,WeatherDisplay:10.37,2013-03-23 14:09:00,
2013-03-23 07:14:00,52.6,49.8,29.97,SE,129,2.0,2.0,90,0.00,BKN,,0.00,23.0,WeatherDisplay:10.37,2013-03-23 14:14:00,
2013-03-23 07:19:00,52.7,49.8,29.97,SE,129,3.0,3.0,90,0.00,BKN,,0.00,28.0,WeatherDisplay:10.37,2013-03-23 14:19:00,
2013-03-23 07:24:00,52.8,49.9,29.97,SE,129,1.1,1.1,90,0.00,BKN,,0.00,37.0,WeatherDisplay:10.37,2013-03-23 14:24:00,
2013-03-23 07:29:00,53.0,50.1,29.97,SE,129,1.1,1.1,90,0.00,SCT,,0.00,56.0,WeatherDisplay:10.37,2013-03-23 14:29:00,
2013-03-23 07:34:00,53.2,50.0,29.97,SE,129,2.3,2.3,89,0.00,SCT,,0.00,51.0,WeatherDisplay:10.37,2013-03-23 14:34:00,
2013-03-23 07:39:00,53.3,50.1,29.98,SE,127,2.3,2.3,89,0.00,BKN,,0.00,60.0,WeatherDisplay:10.37,2013-03-23 14:39:00,
2013-03-23 07:44:00,53.5,50.3,29.98,SE,127,2.3,2.3,89,0.00,SCT,,0.00,74.0,WeatherDisplay:10.37,2013-03-23 14:44:00,
2013-03-23 07:49:00,53.6,50.4,29.98,SE,127,1.1,1.1,89,0.00,SCT,,0.00,72.0,WeatherDisplay:10.37,2013-03-23 14:49:00,
2013-03-23 07:54:00,53.8,50.6,29.98,ESE,118,3.0,3.0,89,0.00,SCT,,0.00,88.0,WeatherDisplay:10.37,2013-03-23 14:54:00,
2013-03-23 07:59:00,53.9,50.4,29.99,ESE,119,3.5,3.5,88,0.00,BKN,,0.00,77.0,WeatherDisplay:10.37,2013-03-23 14:59:00,
2013-03-23 08:04:00,54.1,50.6,29.99,ESE,112,4.0,4.0,88,0.00,BKN,,0.00,83.0,WeatherDisplay:10.37,2013-03-23 15:04:00,
2013-03-23 08:10:00,54.2,50.7,29.99,East,98,4.6,4.6,88,0.00,BKN,,0.00,77.0,WeatherDisplay:10.37,2013-03-23 15:10:00,
2013-03-23 08:15:00,54.4,50.6,30.00,East,81,5.0,5.0,87,0.00,BKN,,0.00,81.0,WeatherDisplay:10.37,2013-03-23 15:15:00,
2013-03-23 08:20:00,54.4,50.6,30.00,SE,134,6.0,6.0,87,0.00,BKN,,0.00,88.0,WeatherDisplay:10.37,2013-03-23 15:20:00,
2013-03-23 08:25:00,54.4,50.6,30.00,East,98,2.3,2.3,87,0.00,BKN,,0.00,81.0,WeatherDisplay:10.37,2013-03-23 15:25:00,
2013-03-23 08:30:00,54.4,50.6,30.00,South,173,5.8,5.8,87,0.00,BKN,,0.00,84.0,WeatherDisplay:10.37,2013-03-23 15:30:00,
2013-03-23 08:35:00,54.4,50.6,30.00,East,96,3.5,3.5,87,0.00,BKN,,0.00,88.0,WeatherDisplay:10.37,2013-03-23 15:35:00,
2013-03-23 08:40:00,54.4,50.6,30.00,East,96,2.3,2.3,87,0.00,BKN,,0.00,100.0,WeatherDisplay:10.37,2013-03-23 15:40:00,
2013-03-23 08:45:00,54.5,50.7,30.00,East,93,5.0,5.0,87,0.00,BKN,,0.00,113.0,WeatherDisplay:10.37,2013-03-23 15:45:00,
2013-03-23 08:50:00,54.6,50.5,30.00,ENE,78,4.6,4.6,86,0.00,BKN,,0.00,144.0,WeatherDisplay:10.37,2013-03-23 15:50:00,
2013-03-23 08:55:00,54.6,50.5,30.00,East,86,4.6,4.6,86,0.00,BKN,,0.00,153.0,WeatherDisplay:10.37,2013-03-23 15:55:00,
2013-03-23 09:00:00,54.7,50.6,30.01,ENE,70,5.0,5.0,86,0.00,BKN,,0.00,160.0,WeatherDisplay:10.37,2013-03-23 16:00:00,
2013-03-23 09:05:00,54.7,50.6,30.01,East,88,3.5,3.5,86,0.00,BKN,,0.00,200.0,WeatherDisplay:10.37,2013-03-23 16:05:00,
2013-03-23 09:10:00,54.8,50.7,30.01,SSE,156,4.6,4.6,86,0.00,SCT,,0.00,211.0,WeatherDisplay:10.37,2013-03-23 16:10:00,
2013-03-23 09:15:00,55.0,50.9,30.01,SE,130,4.0,4.0,86,0.00,SCT,,0.00,260.0,WeatherDisplay:10.37,2013-03-23 16:15:00,
2013-03-23 09:20:00,55.3,50.9,30.01,SE,140,4.6,4.6,85,0.00,BKN,,0.00,227.0,WeatherDisplay:10.37,2013-03-23 16:20:00,
2013-03-23 09:25:00,55.4,50.6,30.01,SE,140,3.5,3.5,84,0.00,SCT,,0.00,255.0,WeatherDisplay:10.37,2013-03-23 16:25:00,
2013-03-23 09:30:00,55.5,50.7,30.01,SSE,162,5.0,5.0,84,0.00,BKN,,0.00,223.0,WeatherDisplay:10.37,2013-03-23 16:30:00,
2013-03-23 09:35:00,55.5,50.7,30.01,SSE,167,1.1,0.0,84,0.00,SCT,,0.00,508.0,WeatherDisplay:10.37,2013-03-23 16:35:00,
2013-03-23 09:40:00,56.1,51.7,30.02,SSE,158,2.3,2.3,85,0.00,CLR,,0.00,497.0,WeatherDisplay:10.37,2013-03-23 16:40:00,
2013-03-23 09:45:00,57.0,51.6,30.02,SSE,155,3.5,3.5,82,0.00,CLR,,0.00,506.0,WeatherDisplay:10.37,2013-03-23 16:45:00,
2013-03-23 09:50:00,57.6,51.5,30.02,ESE,108,3.5,3.5,80,0.00,CLR,,0.00,522.0,WeatherDisplay:10.37,2013-03-23 16:50:00,
2013-03-23 09:55:00,58.0,51.5,30.02,ESE,115,4.6,4.6,79,0.00,CLR,,0.00,534.0,WeatherDisplay:10.37,2013-03-23 16:55:00,
2013-03-23 10:00:00,58.3,51.8,30.02,ESE,107,3.0,3.0,79,0.00,CLR,,0.00,543.0,WeatherDisplay:10.37,2013-03-23 17:00:00,
2013-03-23 10:05:00,58.7,51.5,30.01,SE,125,9.2,9.2,77,0.00,CLR,,0.00,566.0,WeatherDisplay:10.37,2013-03-23 17:05:00,
2013-03-23 10:10:00,58.6,51.4,30.01,ESE,108,8.1,8.1,77,0.00,CLR,,0.00,577.0,WeatherDisplay:10.37,2013-03-23 17:10:00,
2013-03-23 10:15:00,58.9,52.1,30.01,SE,137,4.6,4.6,78,0.00,CLR,,0.00,587.0,WeatherDisplay:10.37,2013-03-23 17:15:00,
2013-03-23 10:20:00,59.4,51.8,30.01,SE,140,7.0,7.0,76,0.00,CLR,,0.00,587.0,WeatherDisplay:10.37,2013-03-23 17:20:00,
2013-03-23 10:25:00,59.5,51.9,30.01,SSE,165,3.5,3.5,76,0.00,CLR,,0.00,613.0,WeatherDisplay:10.37,2013-03-23 17:25:00,
2013-03-23 10:30:00,59.8,52.6,30.01,South,178,4.0,4.0,77,0.00,CLR,,0.00,617.0,WeatherDisplay:10.37,2013-03-23 17:30:00,
2013-03-23 10:35:00,60.4,52.1,30.01,South,185,5.8,5.8,74,0.00,CLR,,0.00,645.0,WeatherDisplay:10.37,2013-03-23 17:35:00,
2013-03-23 10:40:00,60.4,52.1,30.01,South,175,3.5,3.5,74,0.00,CLR,,0.00,649.0,WeatherDisplay:10.37,2013-03-23 17:40:00,
2013-03-23 10:45:00,60.8,52.5,30.01,SSE,151,6.9,6.9,74,0.00,CLR,,0.00,663.0,WeatherDisplay:10.37,2013-03-23 17:45:00,
2013-03-23 10:50:00,60.8,52.1,30.01,South,182,4.6,4.6,73,0.00,CLR,,0.00,675.0,WeatherDisplay:10.37,2013-03-23 17:50:00,
2013-03-23 10:55:00,61.3,52.2,30.00,SE,126,5.8,5.8,72,0.00,CLR,,0.00,686.0,WeatherDisplay:10.37,2013-03-23 17:55:00,
2013-03-23 11:00:00,61.9,52.4,30.00,South,184,6.0,6.0,71,0.00,CLR,,0.00,693.0,WeatherDisplay:10.37,2013-03-23 18:00:00,
2013-03-23 11:05:00,62.3,52.0,30.00,SSW,211,3.5,3.5,69,0.00,CLR,,0.00,705.0,WeatherDisplay:10.37,2013-03-23 18:05:00,
2013-03-23 11:10:00,62.3,52.0,30.01,WSW,247,4.0,4.0,69,0.00,CLR,,0.00,712.0,WeatherDisplay:10.37,2013-03-23 18:10:00,
2013-03-23 11:15:00,62.5,51.8,30.00,SE,142,2.3,2.3,68,0.00,CLR,,0.00,721.0,WeatherDisplay:10.37,2013-03-23 18:15:00,
2013-03-23 11:20:00,63.1,52.4,30.00,ENE,62,2.3,2.3,68,0.00,CLR,,0.00,728.0,WeatherDisplay:10.37,2013-03-23 18:20:00,
2013-03-23 11:25:00,63.5,52.3,30.00,SSW,197,4.6,4.6,67,0.00,CLR,,0.00,744.0,WeatherDisplay:10.37,2013-03-23 18:25:00,
2013-03-23 11:30:00,63.8,52.2,30.00,SE,136,4.0,4.0,66,0.00,CLR,,0.00,751.0,WeatherDisplay:10.37,2013-03-23 18:30:00,
2013-03-23 11:35:00,64.5,51.6,30.00,SSE,160,6.0,6.0,63,0.00,CLR,,0.00,761.0,WeatherDisplay:10.37,2013-03-23 18:35:00,
2013-03-23 11:40:00,64.3,51.4,30.00,SSE,165,4.6,4.6,63,0.00,CLR,,0.00,754.0,WeatherDisplay:10.37,2013-03-23 18:40:00,
2013-03-23 11:45:00,64.4,51.5,30.00,South,184,3.5,3.5,63,0.00,CLR,,0.00,766.0,WeatherDisplay:10.37,2013-03-23 18:45:00,
2013-03-23 11:50:00,64.8,51.5,30.00,SSW,211,4.0,4.0,62,0.00,CLR,,0.00,780.0,WeatherDisplay:10.37,2013-03-23 18:50:00,
2013-03-23 11:55:00,65.0,51.7,30.00,West,261,5.0,5.0,62,0.00,CLR,,0.00,780.0,WeatherDisplay:10.37,2013-03-23 18:55:00,
2013-03-23 12:00:00,64.9,51.6,30.00,WNW,286,3.5,3.5,62,0.00,CLR,,0.00,793.0,WeatherDisplay:10.37,2013-03-23 19:00:00,
2013-03-23 12:05:00,65.7,51.9,30.00,West,268,3.5,3.5,61,0.00,CLR,,0.00,793.0,WeatherDisplay:10.37,2013-03-23 19:05:00,
2013-03-23 12:10:00,66.0,51.7,30.00,West,259,4.0,4.0,60,0.00,CLR,,0.00,802.0,WeatherDisplay:10.37,2013-03-23 19:10:00,
2013-03-23 12:15:00,66.0,51.3,30.00,WSW,242,2.3,2.3,59,0.00,CLR,,0.00,803.0,WeatherDisplay:10.37,2013-03-23 19:15:00,
2013-03-23 12:20:00,66.4,51.2,30.00,West,279,4.6,4.6,58,0.00,CLR,,0.00,807.0,WeatherDisplay:10.37,2013-03-23 19:20:00,
2013-03-23 12:25:00,66.4,50.7,30.00,SSW,202,6.9,6.9,57,0.00,CLR,,0.00,810.0,WeatherDisplay:10.37,2013-03-23 19:25:00,
2013-03-23 12:30:00,66.5,50.8,30.00,SSW,211,6.0,6.0,57,0.00,CLR,,0.00,807.0,WeatherDisplay:10.37,2013-03-23 19:30:00,
2013-03-23 12:35:00,66.6,50.4,30.00,NW,322,3.5,3.5,56,0.00,CLR,,0.00,817.0,WeatherDisplay:10.37,2013-03-23 19:35:00,
2013-03-23 12:40:00,67.3,50.6,30.00,SSW,200,5.8,5.8,55,0.00,CLR,,0.00,814.0,WeatherDisplay:10.37,2013-03-23 19:40:00,
2013-03-23 12:45:00,67.8,50.5,30.00,SSW,200,4.0,4.0,54,0.00,CLR,,0.00,823.0,WeatherDisplay:10.37,2013-03-23 19:45:00,
2013-03-23 12:50:00,68.5,50.7,30.00,SSW,211,4.6,4.6,53,0.00,CLR,,0.00,819.0,WeatherDisplay:10.37,2013-03-23 19:50:00,
2013-03-23 12:55:00,68.9,50.5,29.99,WSW,253,3.5,3.5,52,0.00,CLR,,0.00,819.0,WeatherDisplay:10.37,2013-03-23 19:55:00,
2013-03-23 13:00:00,69.3,50.9,29.99,SW,225,3.5,3.5,52,0.00,CLR,,0.00,821.0,WeatherDisplay:10.37,2013-03-23 20:00:00,
2013-03-23 13:05:00,69.6,50.7,29.99,SSE,162,5.8,5.8,51,0.00,CLR,,0.00,821.0,WeatherDisplay:10.37,2013-03-23 20:05:00,
2013-03-23 13:10:00,69.8,50.9,29.99,South,184,1.1,0.0,51,0.00,CLR,,0.00,812.0,WeatherDisplay:10.37,2013-03-23 20:10:00,
2013-03-23 13:15:00,70.1,51.1,29.99,WNW,283,3.0,3.0,51,0.00,CLR,,0.00,814.0,WeatherDisplay:10.37,2013-03-23 20:15:00,
2013-03-23 13:20:00,70.4,51.4,29.99,West,275,5.0,5.0,51,0.00,CLR,,0.00,816.0,WeatherDisplay:10.37,2013-03-23 20:20:00,
2013-03-23 13:25:00,70.5,51.0,29.99,WSW,257,3.5,3.5,50,0.00,CLR,,0.00,805.0,WeatherDisplay:10.37,2013-03-23 20:25:00,
2013-03-23 13:30:00,70.5,51.0,29.98,SE,134,4.6,4.6,50,0.00,FEW,,0.00,803.0,WeatherDisplay:10.37,2013-03-23 20:30:00,
2013-03-23 13:35:00,70.6,52.6,29.98,SW,226,6.9,6.9,53,0.00,CLR,,0.00,802.0,WeatherDisplay:10.37,2013-03-23 20:35:00,
2013-03-23 13:40:00,70.7,52.7,29.98,SW,234,5.0,5.0,53,0.00,CLR,,0.00,796.0,WeatherDisplay:10.37,2013-03-23 20:40:00,
2013-03-23 13:45:00,71.2,53.7,29.98,SW,215,8.1,8.1,54,0.00,CLR,,0.00,795.0,WeatherDisplay:10.37,2013-03-23 20:45:00,
2013-03-23 13:50:00,71.2,53.2,29.98,SSW,198,8.0,8.0,53,0.00,FEW,,0.00,738.0,WeatherDisplay:10.37,2013-03-23 20:50:00,
2013-03-23 13:55:00,70.6,52.6,29.97,SSW,205,9.0,9.0,53,0.00,CLR,,0.00,759.0,WeatherDisplay:10.37,2013-03-23 20:55:00,
2013-03-23 14:00:00,70.5,53.6,29.97,SW,223,5.8,5.8,55,0.00,CLR,,0.00,793.0,WeatherDisplay:10.37,2013-03-23 21:00:00,
2013-03-23 14:05:00,71.1,52.6,29.97,SSW,213,6.9,6.9,52,0.00,SCT,,0.00,599.0,WeatherDisplay:10.37,2013-03-23 21:05:00,
2013-03-23 14:10:00,70.5,53.1,29.96,SW,225,7.0,7.0,54,0.00,CLR,,0.00,751.0,WeatherDisplay:10.37,2013-03-23 21:10:00,
2013-03-23 14:15:00,70.8,52.8,29.96,SSW,202,9.2,9.2,53,0.00,FEW,,0.00,686.0,WeatherDisplay:10.37,2013-03-23 21:15:00,
2013-03-23 14:20:00,70.4,53.5,29.96,SSW,207,11.5,11.5,55,0.00,FEW,,0.00,717.0,WeatherDisplay:10.37,2013-03-23 21:20:00,
2013-03-23 14:25:00,70.4,54.0,29.96,South,190,9.2,9.2,56,0.00,FEW,,0.00,659.0,WeatherDisplay:10.37,2013-03-23 21:25:00,
2013-03-23 14:30:00,70.5,53.6,29.95,South,171,9.2,9.2,55,0.00,FEW,,0.00,705.0,WeatherDisplay:10.37,2013-03-23 21:30:00,
2013-03-23 14:35:00,70.5,53.6,29.95,SSW,207,6.9,6.9,55,0.00,CLR,,0.00,649.0,WeatherDisplay:10.37,2013-03-23 21:35:00,
2013-03-23 14:40:00,70.2,53.8,29.95,SSW,205,10.4,10.4,56,0.00,FEW,,0.00,629.0,WeatherDisplay:10.37,2013-03-23 21:40:00,
2013-03-23 14:45:00,70.1,53.7,29.95,South,172,9.0,9.0,56,0.00,FEW,,0.00,663.0,WeatherDisplay:10.37,2013-03-23 21:45:00,
2013-03-23 14:50:00,69.7,53.8,29.95,South,188,9.2,9.2,57,0.00,FEW,,0.00,682.0,WeatherDisplay:10.37,2013-03-23 21:50:00,
2013-03-23 14:55:00,69.9,54.0,29.94,SW,226,4.0,4.0,57,0.00,CLR,,0.00,708.0,WeatherDisplay:10.37,2013-03-23 21:55:00,
2013-03-23 15:00:00,70.2,53.8,29.95,South,175,6.9,6.9,56,0.00,CLR,,0.00,703.0,WeatherDisplay:10.37,2013-03-23 22:00:00,
2013-03-23 15:05:00,70.1,54.2,29.94,South,182,9.2,9.2,57,0.00,CLR,,0.00,693.0,WeatherDisplay:10.37,2013-03-23 22:05:00,
2013-03-23 15:10:00,70.3,53.9,29.94,SSW,205,8.1,8.1,56,0.00,FEW,,0.00,573.0,WeatherDisplay:10.37,2013-03-23 22:10:00,
2013-03-23 15:15:00,70.3,53.9,29.94,SSW,202,8.1,8.1,56,0.00,CLR,,0.00,673.0,WeatherDisplay:10.37,2013-03-23 22:15:00,
2013-03-23 15:21:00,70.2,53.8,29.94,SSW,197,8.1,8.1,56,0.00,CLR,,0.00,636.0,WeatherDisplay:10.37,2013-03-23 22:21:00,
2013-03-23 15:26:00,69.9,54.0,29.94,South,171,8.1,8.1,57,0.00,CLR,,0.00,517.0,WeatherDisplay:10.37,2013-03-23 22:26:00,
2013-03-23 15:31:00,70.0,54.1,29.94,West,269,10.4,10.4,57,0.00,CLR,,0.00,608.0,WeatherDisplay:10.37,2013-03-23 22:31:00,
2013-03-23 15:36:00,70.4,54.0,29.94,SSW,212,9.2,9.2,56,0.00,CLR,,0.00,656.0,WeatherDisplay:10.37,2013-03-23 22:36:00,
2013-03-23 15:41:00,70.4,54.0,29.94,SSW,204,9.2,9.2,56,0.00,CLR,,0.00,612.0,WeatherDisplay:10.37,2013-03-23 22:41:00,
2013-03-23 15:46:00,70.2,54.2,29.94,SW,228,10.4,10.4,57,0.00,CLR,,0.00,608.0,WeatherDisplay:10.37,2013-03-23 22:46:00,
2013-03-23 15:51:00,69.9,54.0,29.93,SSW,201,8.1,8.1,57,0.00,CLR,,0.00,540.0,WeatherDisplay:10.37,2013-03-23 22:51:00,
2013-03-23 15:56:00,69.9,54.0,29.94,SSW,205,7.0,7.0,57,0.00,CLR,,0.00,554.0,WeatherDisplay:10.37,2013-03-23 22:56:00,
2013-03-23 16:01:00,69.9,54.0,29.94,SSW,205,9.2,9.2,57,0.00,CLR,,0.00,570.0,WeatherDisplay:10.37,2013-03-23 23:01:00,
2013-03-23 16:06:00,69.5,54.1,29.93,SSW,205,13.0,13.0,58,0.00,CLR,,0.00,538.0,WeatherDisplay:10.37,2013-03-23 23:06:00,
2013-03-23 16:11:00,69.4,54.0,29.93,SW,235,7.0,7.0,58,0.00,CLR,,0.00,517.0,WeatherDisplay:10.37,2013-03-23 23:11:00,
2013-03-23 16:16:00,69.3,53.9,29.93,SSW,202,10.4,10.4,58,0.00,CLR,,0.00,503.0,WeatherDisplay:10.37,2013-03-23 23:16:00,
2013-03-23 16:21:00,69.4,54.0,29.93,SSW,200,9.2,9.2,58,0.00,CLR,,0.00,483.0,WeatherDisplay:10.37,2013-03-23 23:21:00,
2013-03-23 16:26:00,69.6,54.2,29.93,SSW,211,9.2,9.2,58,0.00,CLR,,0.00,466.0,WeatherDisplay:10.37,2013-03-23 23:26:00,
2013-03-23 16:31:00,69.4,54.0,29.93,South,172,11.5,11.5,58,0.00,CLR,,0.00,450.0,WeatherDisplay:10.37,2013-03-23 23:31:00,
2013-03-23 16:36:00,69.3,54.4,29.93,SSW,200,11.5,11.5,59,0.00,CLR,,0.00,436.0,WeatherDisplay:10.37,2013-03-23 23:36:00,
2013-03-23 16:41:00,69.3,54.4,29.93,South,186,7.0,7.0,59,0.00,CLR,,0.00,422.0,WeatherDisplay:10.37,2013-03-23 23:41:00,
2013-03-23 16:46:00,69.4,54.0,29.93,SSW,201,10.0,10.0,58,0.00,CLR,,0.00,411.0,WeatherDisplay:10.37,2013-03-23 23:46:00,
2013-03-23 16:51:00,68.9,54.0,29.93,SW,219,10.4,10.4,59,0.00,CLR,,0.00,397.0,WeatherDisplay:10.37,2013-03-23 23:51:00,
2013-03-23 16:56:00,68.5,54.1,29.93,SSE,156,8.1,8.1,60,0.00,CLR,,0.00,376.0,WeatherDisplay:10.37,2013-03-23 23:56:00,
2013-03-23 17:01:00,68.5,54.1,29.93,SSW,198,8.1,8.1,60,0.00,CLR,,0.00,357.0,WeatherDisplay:10.37,2013-03-24 00:01:00,
2013-03-23 17:06:00,68.5,54.1,29.93,South,173,9.2,9.2,60,0.00,CLR,,0.00,334.0,WeatherDisplay:10.37,2013-03-24 00:06:00,
2013-03-23 17:12:00,68.3,54.3,29.93,South,177,10.0,10.0,61,0.00,CLR,,0.00,265.0,WeatherDisplay:10.37,2013-03-24 00:12:00,
2013-03-23 17:17:00,67.9,54.0,29.93,South,188,8.0,8.0,61,0.00,FEW,,0.00,258.0,WeatherDisplay:10.37,2013-03-24 00:17:00,
2013-03-23 17:22:00,67.9,54.0,29.93,SSW,200,8.1,8.1,61,0.00,CLR,,0.00,279.0,WeatherDisplay:10.37,2013-03-24 00:22:00,
2013-03-23 17:27:00,67.9,54.0,29.93,South,180,10.4,10.4,61,0.00,CLR,,0.00,278.0,WeatherDisplay:10.37,2013-03-24 00:27:00,
2013-03-23 17:32:00,67.6,54.1,29.93,SSW,192,9.2,9.2,62,0.00,CLR,,0.00,253.0,WeatherDisplay:10.37,2013-03-24 00:32:00,
2013-03-23 17:37:00,67.3,53.8,29.93,South,173,9.2,9.2,62,0.00,SCT,,0.00,171.0,WeatherDisplay:10.37,2013-03-24 00:37:00,
2013-03-23 17:42:00,67.2,54.2,29.93,South,186,6.9,6.9,63,0.00,FEW,,0.00,195.0,WeatherDisplay:10.37,2013-03-24 00:42:00,
2013-03-23 17:47:00,67.2,54.2,29.94,SSW,211,7.0,7.0,63,0.00,FEW,,0.00,188.0,WeatherDisplay:10.37,2013-03-24 00:47:00,
2013-03-23 17:52:00,66.8,53.8,29.93,SSW,203,8.1,8.1,63,0.00,SCT,,0.00,102.0,WeatherDisplay:10.37,2013-03-24 00:52:00,
2013-03-23 17:57:00,66.3,54.2,29.94,South,171,4.6,4.6,65,0.00,BKN,,0.00,65.0,WeatherDisplay:10.37,2013-03-24 00:57:00,
2013-03-23 18:02:00,66.3,53.3,29.94,WNW,284,8.1,8.1,63,0.00,BKN,,0.00,49.0,WeatherDisplay:10.37,2013-03-24 01:02:00,
2013-03-23 18:07:00,66.6,53.2,29.94,West,261,5.8,5.8,62,0.00,BKN,,0.00,42.0,WeatherDisplay:10.37,2013-03-24 01:07:00,
2013-03-23 18:12:00,66.2,53.2,29.94,West,277,9.2,9.2,63,0.00,BKN,,0.00,39.0,WeatherDisplay:10.37,2013-03-24 01:12:00,
2013-03-23 18:17:00,65.7,53.2,29.94,West,264,9.2,9.2,64,0.00,BKN,,0.00,33.0,WeatherDisplay:10.37,2013-03-24 01:17:00,
2013-03-23 18:22:00,65.1,52.6,29.94,West,273,11.5,11.5,64,0.00,BKN,,0.00,30.0,WeatherDisplay:10.37,2013-03-24 01:22:00,
2013-03-23 18:27:00,64.8,52.3,29.94,West,279,8.1,8.1,64,0.00,BKN,,0.00,26.0,WeatherDisplay:10.37,2013-03-24 01:27:00,
2013-03-23 18:32:00,64.6,52.6,29.94,WNW,284,7.0,7.0,65,0.00,BKN,,0.00,26.0,WeatherDisplay:10.37,2013-03-24 01:32:00,
2013-03-23 18:37:00,64.6,53.0,29.94,West,279,5.8,5.8,66,0.00,BKN,,0.00,23.0,WeatherDisplay:10.37,2013-03-24 01:37:00,
2013-03-23 18:42:00,64.4,52.0,29.94,West,271,8.1,8.1,64,0.00,BKN,,0.00,18.0,WeatherDisplay:10.37,2013-03-24 01:42:00,
2013-03-23 18:47:00,64.2,51.8,29.95,West,260,6.9,6.9,64,0.00,BKN,,0.00,12.0,WeatherDisplay:10.37,2013-03-24 01:47:00,
2013-03-23 18:52:00,64.1,51.7,29.94,West,276,5.0,5.0,64,0.00,BKN,,0.00,9.0,WeatherDisplay:10.37,2013-03-24 01:52:00,
2013-03-23 18:57:00,64.0,51.6,29.95,West,262,7.0,7.0,64,0.00,BKN,,0.00,5.0,WeatherDisplay:10.37,2013-03-24 01:57:00,
2013-03-23 19:02:00,63.7,51.7,29.95,West,270,9.2,9.2,65,0.00,CLR,,0.00,0.0,WeatherDisplay:10.37,2013-03-24 02:02:00,
2013-03-23 19:07:00,63.3,51.7,29.95,WNW,293,7.0,7.0,66,0.00,CLR,,0.00,0.0,WeatherDisplay:10.37,2013-03-24 02:07:00,
2013-03-23 19:12:00,63.0,51.5,29.95,West,263,9.2,9.2,66,0.00,CLR,,0.00,0.0,WeatherDisplay:10.37,2013-03-24 02:12:00,
2013-03-23 19:17:00,62.9,51.4,29.95,SW,234,6.9,6.9,66,0.00,CLR,,0.00,0.0,WeatherDisplay:10.37,2013-03-24 02:17:00,
2013-03-23 19:22:00,62.7,51.2,29.95,West,259,7.0,7.0,66,0.00,CLR,,0.00,0.0,WeatherDisplay:10.37,2013-03-24 02:22:00,
2013-03-23 19:27:00,62.5,51.0,29.95,West,278,5.8,5.8,66,0.00,CLR,,0.00,0.0,WeatherDisplay:10.37,2013-03-24 02:27:00,
2013-03-23 19:32:00,62.3,51.2,29.95,West,259,6.9,6.9,67,0.00,CLR,,0.00,0.0,WeatherDisplay:10.37,2013-03-24 02:32:00,
2013-03-23 19:37:00,62.1,51.4,29.95,West,270,5.8,5.8,68,0.00,CLR,,0.00,0.0,WeatherDisplay:10.37,2013-03-24 02:37:00,
2013-03-23 19:42:00,61.9,51.2,29.95,WSW,256,4.6,4.6,68,0.00,CLR,,0.00,0.0,WeatherDisplay:10.37,2013-03-24 02:42:00,
2013-03-23 19:47:00,61.8,51.5,29.96,WNW,284,5.0,5.0,69,0.00,CLR,,0.00,0.0,WeatherDisplay:10.37,2013-03-24 02:47:00,
2013-03-23 19:52:00,61.7,51.8,29.96,West,261,5.8,5.8,70,0.00,CLR,,0.00,0.0,WeatherDisplay:10.37,2013-03-24 02:52:00,
2013-03-23 19:57:00,61.6,52.1,29.97,West,259,4.6,4.6,71,0.00,CLR,,0.00,0.0,WeatherDisplay:10.37,2013-03-24 02:57:00,
2013-03-23 20:02:00,61.5,52.0,29.97,West,261,5.8,5.8,71,0.00,CLR,,0.00,0.0,WeatherDisplay:10.37,2013-03-24 03:02:00,
2013-03-23 20:07:00,61.4,52.3,29.97,West,263,4.6,4.6,72,0.00,CLR,,0.00,0.0,WeatherDisplay:10.37,2013-03-24 03:07:00,
2013-03-23 20:12:00,61.3,52.6,29.97,West,270,4.0,4.0,73,0.00,CLR,,0.00,0.0,WeatherDisplay:10.37,2013-03-24 03:12:00,
2013-03-23 20:17:00,61.2,52.5,29.97,West,264,5.0,5.0,73,0.00,CLR,,0.00,0.0,WeatherDisplay:10.37,2013-03-24 03:17:00,
2013-03-23 20:22:00,61.2,52.8,29.97,West,265,3.5,3.5,74,0.00,CLR,,0.00,0.0,WeatherDisplay:10.37,2013-03-24 03:22:00,
2013-03-23 20:27:00,61.1,52.7,29.97,West,265,4.6,4.6,74,0.00,CLR,,0.00,0.0,WeatherDisplay:10.37,2013-03-24 03:27:00,
2013-03-23 20:32:00,61.0,52.7,29.97,West,265,1.1,1.1,74,0.00,CLR,,0.00,0.0,WeatherDisplay:10.37,2013-03-24 03:32:00,
2013-03-23 20:37:00,60.9,52.9,29.97,West,265,2.0,2.0,75,0.00,CLR,,0.00,0.0,WeatherDisplay:10.37,2013-03-24 03:37:00,
2013-03-23 20:42:00,60.8,52.8,29.98,West,265,1.1,1.1,75,0.00,CLR,,0.00,0.0,WeatherDisplay:10.37,2013-03-24 03:42:00,
2013-03-23 20:48:00,60.7,52.7,29.98,West,265,3.5,3.5,75,0.00,CLR,,0.00,0.0,WeatherDisplay:10.37,2013-03-24 03:48:00,
2013-03-23 20:53:00,60.7,52.7,29.98,West,265,1.1,0.0,75,0.00,CLR,,0.00,0.0,WeatherDisplay:10.37,2013-03-24 03:53:00,
2013-03-23 20:57:00,60.6,52.3,29.98,West,265,2.3,2.3,74,0.00,CLR,,0.00,0.0,WeatherDisplay:10.37,2013-03-24 03:57:00,
2013-03-23 21:00:00,60.5,52.2,29.99,West,265,3.5,3.5,74,0.00,CLR,,0.00,0.0,WeatherDisplay:10.37,2013-03-24 04:00:00,
2013-03-23 21:01:00,60.5,52.2,29.99,West,265,3.5,3.5,74,0.00,CLR,,0.00,0.0,WeatherDisplay:10.37,2013-03-24 04:01:00,
2013-03-23 21:06:00,60.4,52.1,29.99,West,277,4.0,4.0,74,0.00,CLR,,0.00,0.0,WeatherDisplay:10.37,2013-03-24 04:06:00,
2013-03-23 21:11:00,60.3,51.6,29.99,West,281,3.5,3.5,73,0.00,CLR,,0.00,0.0,WeatherDisplay:10.37,2013-03-24 04:11:00,
2013-03-23 21:16:00,60.2,51.9,29.99,West,281,3.5,3.5,74,0.00,CLR,,0.00,0.0,WeatherDisplay:10.37,2013-03-24 04:16:00,
2013-03-23 21:21:00,60.1,51.8,29.99,West,281,2.3,2.3,74,0.00,CLR,,0.00,0.0,WeatherDisplay:10.37,2013-03-24 04:21:00,
2013-03-23 21:27:00,60.0,51.7,29.99,West,281,1.1,0.0,74,0.00,CLR,,0.00,0.0,WeatherDisplay:10.37,2013-03-24 04:27:00,
2013-03-23 21:32:00,59.9,52.0,29.99,West,281,1.1,0.0,75,0.00,CLR,,0.00,0.0,WeatherDisplay:10.37,2013-03-24 04:32:00,
2013-03-23 21:37:00,59.8,51.9,29.99,West,281,1.1,1.1,75,0.00,CLR,,0.00,0.0,WeatherDisplay:10.37,2013-03-24 04:37:00,
2013-03-23 21:42:00,59.7,52.1,29.99,West,281,0.0,0.0,76,0.00,CLR,,0.00,0.0,WeatherDisplay:10.37,2013-03-24 04:42:00,
2013-03-23 21:47:00,59.6,52.0,29.99,West,281,1.1,1.1,76,0.00,CLR,,0.00,0.0,WeatherDisplay:10.37,2013-03-24 04:47:00,
2013-03-23 21:52:00,59.6,52.7,29.99,West,281,2.3,2.3,78,0.00,CLR,,0.00,0.0,WeatherDisplay:10.37,2013-03-24 04:52:00,
2013-03-23 21:57:00,59.5,52.6,30.00,West,281,0.0,0.0,78,0.00,CLR,,0.00,0.0,WeatherDisplay:10.37,2013-03-24 04:57:00,
2013-03-23 22:02:00,59.4,52.9,30.00,West,281,1.1,1.1,79,0.00,CLR,,0.00,0.0,WeatherDisplay:10.37,2013-03-24 05:02:00,
2013-03-23 22:07:00,59.3,52.8,30.00,West,281,0.0,0.0,79,0.00,CLR,,0.00,0.0,WeatherDisplay:10.37,2013-03-24 05:07:00,
2013-03-23 22:12:00,59.2,53.0,30.00,West,281,2.3,0.0,80,0.00,CLR,,0.00,0.0,WeatherDisplay:10.37,2013-03-24 05:12:00,
2013-03-23 22:17:00,59.2,53.0,30.00,West,281,1.1,0.0,80,0.00,CLR,,0.00,0.0,WeatherDisplay:10.37,2013-03-24 05:17:00,
2013-03-23 22:22:00,59.1,52.9,30.00,West,281,1.1,1.1,80,0.00,CLR,,0.00,0.0,WeatherDisplay:10.37,2013-03-24 05:22:00,
2013-03-23 22:27:00,59.0,52.8,30.00,West,281,1.1,1.1,80,0.00,CLR,,0.00,0.0,WeatherDisplay:10.37,2013-03-24 05:27:00,
2013-03-23 22:32:00,58.9,53.1,30.00,West,281,2.3,0.0,81,0.00,CLR,,0.00,0.0,WeatherDisplay:10.37,2013-03-24 05:32:00,
2013-03-23 22:37:00,58.8,53.0,30.01,West,281,1.1,1.1,81,0.00,CLR,,0.00,0.0,WeatherDisplay:10.37,2013-03-24 05:37:00,
2013-03-23 22:42:00,58.7,52.9,30.00,West,281,2.3,2.3,81,0.00,CLR,,0.00,0.0,WeatherDisplay:10.37,2013-03-24 05:42:00,
2013-03-23 22:47:00,58.7,52.9,30.00,West,281,2.3,2.3,81,0.00,CLR,,0.00,0.0,WeatherDisplay:10.37,2013-03-24 05:47:00,
2013-03-23 22:52:00,58.8,53.0,30.01,West,281,1.1,0.0,81,0.00,CLR,,0.00,0.0,WeatherDisplay:10.37,2013-03-24 05:52:00,
2013-03-23 22:57:00,58.7,52.9,30.01,West,281,1.1,0.0,81,0.00,CLR,,0.00,0.0,WeatherDisplay:10.37,2013-03-24 05:57:00,
2013-03-23 23:02:00,58.6,52.8,30.01,West,281,1.1,1.1,81,0.00,CLR,,0.00,0.0,WeatherDisplay:10.37,2013-03-24 06:02:00,
2013-03-23 23:07:00,58.5,53.0,30.00,West,281,1.1,1.1,82,0.00,CLR,,0.00,0.0,WeatherDisplay:10.37,2013-03-24 06:07:00,
2013-03-23 23:12:00,58.4,52.9,30.00,West,281,2.3,2.3,82,0.00,CLR,,0.00,0.0,WeatherDisplay:10.37,2013-03-24 06:12:00,
2013-03-23 23:17:00,58.3,52.8,30.00,West,281,1.1,1.1,82,0.00,CLR,,0.00,0.0,WeatherDisplay:10.37,2013-03-24 06:17:00,
2013-03-23 23:22:00,58.2,53.1,30.00,West,281,1.1,1.1,83,0.00,CLR,,0.00,0.0,WeatherDisplay:10.37,2013-03-24 06:22:00,
2013-03-23 23:27:00,58.0,52.9,30.00,West,269,2.0,2.0,83,0.00,CLR,,0.00,0.0,WeatherDisplay:10.37,2013-03-24 06:27:00,
2013-03-23 23:32:00,57.9,52.8,30.00,WSW,254,3.5,3.5,83,0.00,CLR,,0.00,0.0,WeatherDisplay:10.37,2013-03-24 06:32:00,
2013-03-23 23:37:00,57.8,52.7,30.00,WSW,254,0.0,0.0,83,0.00,CLR,,0.00,0.0,WeatherDisplay:10.37,2013-03-24 06:37:00,
2013-03-23 23:42:00,57.7,52.9,30.00,WSW,254,0.0,0.0,84,0.00,CLR,,0.00,0.0,WeatherDisplay:10.37,2013-03-24 06:42:00,
2013-03-23 23:47:00,57.6,52.8,30.00,WSW,254,0.0,0.0,84,0.00,CLR,,0.00,0.0,WeatherDisplay:10.37,2013-03-24 06:47:00,
2013-03-23 23:52:00,57.5,52.7,30.00,WSW,254,0.0,0.0,84,0.00,CLR,,0.00,0.0,WeatherDisplay:10.37,2013-03-24 06:52:00,
2013-03-23 23:57:00,57.3,52.5,30.00,WSW,254,0.0,0.0,84,0.00,CLR,,0.00,0.0,WeatherDisplay:10.37,2013-03-24 06:57:00,